sensor_id;sensor_type;location;lat;lon;timestamp;pressure;altitude;pressure_sealevel;temperature;humidity
74268;BME280;62638;51.362;12.472;2022-10-15T00:01:36;99522.16;;;13.78;97.37
74268;BME280;62638;51.362;12.472;2022-10-15T00:04:02;99513.16;;;13.86;97.13
74268;BME280;62638;51.362;12.472;2022-10-15T00:06:28;99512.63;;;13.90;96.81
74268;BME280;62638;51.362;12.472;2022-10-15T00:08:53;99509.59;;;13.93;96.53
74268;BME280;62638;51.362;12.472;2022-10-15T00:11:21;99504.84;;;13.95;96.47
74268;BME280;62638;51.362;12.472;2022-10-15T00:13:48;99509.00;;;13.98;96.51
74268;BME280;62638;51.362;12.472;2022-10-15T00:16:17;99512.81;;;14.03;96.21
74268;BME280;62638;51.362;12.472;2022-10-15T00:18:42;99519.22;;;14.02;96.05
74268;BME280;62638;51.362;12.472;2022-10-15T00:21:10;99515.91;;;14.00;96.02
74268;BME280;62638;51.362;12.472;2022-10-15T00:23:37;99501.59;;;14.00;96.10
74268;BME280;62638;51.362;12.472;2022-10-15T00:26:11;99506.44;;;14.04;96.25
74268;BME280;62638;51.362;12.472;2022-10-15T00:28:37;99505.97;;;14.01;96.57
74268;BME280;62638;51.362;12.472;2022-10-15T00:31:05;99515.06;;;14.00;96.25
74268;BME280;62638;51.362;12.472;2022-10-15T00:33:30;99508.38;;;13.96;97.22
74268;BME280;62638;51.362;12.472;2022-10-15T00:36:14;99501.13;;;13.96;97.09
74268;BME280;62638;51.362;12.472;2022-10-15T00:38:40;99508.38;;;13.96;96.98
74268;BME280;62638;51.362;12.472;2022-10-15T00:41:07;99499.28;;;13.97;97.53
74268;BME280;62638;51.362;12.472;2022-10-15T00:46:31;99498.06;;;13.99;97.24
74268;BME280;62638;51.362;12.472;2022-10-15T00:51:34;99495.66;;;14.04;97.10
74268;BME280;62638;51.362;12.472;2022-10-15T00:54:01;99486.56;;;14.05;96.96
74268;BME280;62638;51.362;12.472;2022-10-15T00:56:27;99490.72;;;14.08;96.61
74268;BME280;62638;51.362;12.472;2022-10-15T00:58:54;99497.81;;;14.09;96.52
74268;BME280;62638;51.362;12.472;2022-10-15T01:01:21;99488.03;;;14.08;97.14
74268;BME280;62638;51.362;12.472;2022-10-15T01:03:47;99483.78;;;14.14;96.47
74268;BME280;62638;51.362;12.472;2022-10-15T01:06:13;99485.81;;;14.12;97.02
74268;BME280;62638;51.362;12.472;2022-10-15T01:08:38;99483.31;;;14.10;97.05
74268;BME280;62638;51.362;12.472;2022-10-15T01:11:24;99485.25;;;14.16;96.71
74268;BME280;62638;51.362;12.472;2022-10-15T01:14:35;99484.69;;;14.21;96.78
74268;BME280;62638;51.362;12.472;2022-10-15T01:17:09;99489.91;;;14.22;97.28
74268;BME280;62638;51.362;12.472;2022-10-15T01:25:39;99485.47;;;14.15;98.47
74268;BME280;62638;51.362;12.472;2022-10-15T01:31:15;99481.63;;;14.09;99.15
74268;BME280;62638;51.362;12.472;2022-10-15T01:33:58;99466.66;;;14.06;98.97
74268;BME280;62638;51.362;12.472;2022-10-15T01:36:47;99458.13;;;14.03;99.19
74268;BME280;62638;51.362;12.472;2022-10-15T01:39:26;99465.19;;;14.04;98.82
74268;BME280;62638;51.362;12.472;2022-10-15T01:42:00;99461.38;;;13.98;99.60
74268;BME280;62638;51.362;12.472;2022-10-15T01:44:37;99462.44;;;13.97;99.42
74268;BME280;62638;51.362;12.472;2022-10-15T01:47:08;99456.19;;;13.97;99.40
74268;BME280;62638;51.362;12.472;2022-10-15T01:49:41;99457.38;;;13.94;99.51
74268;BME280;62638;51.362;12.472;2022-10-15T01:52:12;99452.22;;;13.93;99.89
74268;BME280;62638;51.362;12.472;2022-10-15T01:54:39;99445.16;;;13.92;99.84
74268;BME280;62638;51.362;12.472;2022-10-15T01:57:05;99446.53;;;13.88;100.00
74268;BME280;62638;51.362;12.472;2022-10-15T01:59:32;99448.22;;;13.89;100.00
74268;BME280;62638;51.362;12.472;2022-10-15T02:01:59;99441.44;;;13.93;99.45
74268;BME280;62638;51.362;12.472;2022-10-15T02:04:26;99450.16;;;13.95;99.68
74268;BME280;62638;51.362;12.472;2022-10-15T02:06:58;99446.44;;;13.96;99.21
74268;BME280;62638;51.362;12.472;2022-10-15T02:10:15;99446.28;;;13.97;98.89
74268;BME280;62638;51.362;12.472;2022-10-15T02:15:44;99436.41;;;14.04;98.14
74268;BME280;62638;51.362;12.472;2022-10-15T02:21:00;99434.84;;;14.10;97.67
74268;BME280;62638;51.362;12.472;2022-10-15T02:23:32;99435.47;;;14.12;97.32
74268;BME280;62638;51.362;12.472;2022-10-15T02:26:04;99441.16;;;14.17;96.95
74268;BME280;62638;51.362;12.472;2022-10-15T02:28:32;99438.75;;;14.22;96.37
74268;BME280;62638;51.362;12.472;2022-10-15T02:31:00;99436.78;;;14.16;96.95
74268;BME280;62638;51.362;12.472;2022-10-15T02:33:28;99435.59;;;14.19;96.47
74268;BME280;62638;51.362;12.472;2022-10-15T02:35:57;99435.94;;;14.16;96.79
74268;BME280;62638;51.362;12.472;2022-10-15T02:38:24;99429.72;;;14.15;96.39
74268;BME280;62638;51.362;12.472;2022-10-15T02:40:52;99422.28;;;14.17;96.66
74268;BME280;62638;51.362;12.472;2022-10-15T02:43:19;99419.88;;;14.22;95.96
74268;BME280;62638;51.362;12.472;2022-10-15T02:45:45;99417.38;;;14.21;96.37
74268;BME280;62638;51.362;12.472;2022-10-15T02:48:10;99417.19;;;14.22;96.13
74268;BME280;62638;51.362;12.472;2022-10-15T02:50:35;99426.22;;;14.15;96.72
74268;BME280;62638;51.362;12.472;2022-10-15T02:53:01;99424.06;;;14.10;96.84
74268;BME280;62638;51.362;12.472;2022-10-15T02:55:27;99429.53;;;14.17;96.11
74268;BME280;62638;51.362;12.472;2022-10-15T02:57:52;99424.59;;;14.20;95.72
74268;BME280;62638;51.362;12.472;2022-10-15T03:00:17;99426.66;;;14.18;96.03
74268;BME280;62638;51.362;12.472;2022-10-15T03:02:44;99428.13;;;14.21;95.93
74268;BME280;62638;51.362;12.472;2022-10-15T03:05:09;99422.97;;;14.19;96.14
74268;BME280;62638;51.362;12.472;2022-10-15T03:07:35;99423.13;;;14.18;95.66
74268;BME280;62638;51.362;12.472;2022-10-15T03:10:01;99430.38;;;14.17;96.29
74268;BME280;62638;51.362;12.472;2022-10-15T03:12:27;99428.41;;;14.11;96.64
74268;BME280;62638;51.362;12.472;2022-10-15T03:14:52;99432.06;;;14.18;96.04
74268;BME280;62638;51.362;12.472;2022-10-15T03:17:17;99428.69;;;14.16;96.28
74268;BME280;62638;51.362;12.472;2022-10-15T03:19:43;99427.84;;;14.16;96.22
74268;BME280;62638;51.362;12.472;2022-10-15T03:22:08;99425.38;;;14.14;95.97
74268;BME280;62638;51.362;12.472;2022-10-15T03:24:33;99422.69;;;14.14;96.08
74268;BME280;62638;51.362;12.472;2022-10-15T03:26:59;99409.00;;;14.16;96.01
74268;BME280;62638;51.362;12.472;2022-10-15T03:29:24;99413.94;;;14.12;96.07
74268;BME280;62638;51.362;12.472;2022-10-15T03:31:50;99412.75;;;14.15;95.88
74268;BME280;62638;51.362;12.472;2022-10-15T03:34:15;99407.44;;;14.06;96.22
74268;BME280;62638;51.362;12.472;2022-10-15T03:36:41;99409.38;;;13.98;96.80
74268;BME280;62638;51.362;12.472;2022-10-15T03:39:06;99407.75;;;13.97;96.76
74268;BME280;62638;51.362;12.472;2022-10-15T03:41:32;99407.06;;;13.95;97.15
74268;BME280;62638;51.362;12.472;2022-10-15T03:44:01;99400.41;;;13.91;96.79
74268;BME280;62638;51.362;12.472;2022-10-15T03:46:26;99412.47;;;13.95;96.82
74268;BME280;62638;51.362;12.472;2022-10-15T03:48:52;99411.84;;;13.93;96.82
74268;BME280;62638;51.362;12.472;2022-10-15T03:51:17;99407.34;;;14.00;96.66
74268;BME280;62638;51.362;12.472;2022-10-15T03:53:43;99405.13;;;14.03;96.49
74268;BME280;62638;51.362;12.472;2022-10-15T03:56:08;99408.38;;;13.99;96.74
74268;BME280;62638;51.362;12.472;2022-10-15T03:58:33;99404.50;;;14.01;96.27
74268;BME280;62638;51.362;12.472;2022-10-15T04:00:59;99403.00;;;13.99;96.49
74268;BME280;62638;51.362;12.472;2022-10-15T04:03:24;99405.50;;;14.00;96.80
74268;BME280;62638;51.362;12.472;2022-10-15T04:05:52;99404.09;;;14.04;96.58
74268;BME280;62638;51.362;12.472;2022-10-15T04:08:18;99406.25;;;14.09;95.84
74268;BME280;62638;51.362;12.472;2022-10-15T04:10:44;99395.94;;;14.13;96.10
74268;BME280;62638;51.362;12.472;2022-10-15T04:13:09;99402.31;;;14.12;96.11
74268;BME280;62638;51.362;12.472;2022-10-15T04:15:38;99396.09;;;14.11;95.75
74268;BME280;62638;51.362;12.472;2022-10-15T04:18:03;99387.97;;;14.04;96.35
74268;BME280;62638;51.362;12.472;2022-10-15T04:20:29;99387.50;;;14.01;96.58
74268;BME280;62638;51.362;12.472;2022-10-15T04:22:55;99383.59;;;14.03;96.33
74268;BME280;62638;51.362;12.472;2022-10-15T04:25:20;99385.38;;;13.96;96.31
74268;BME280;62638;51.362;12.472;2022-10-15T04:27:46;99389.25;;;13.94;96.50
74268;BME280;62638;51.362;12.472;2022-10-15T04:30:12;99388.78;;;13.90;97.02
74268;BME280;62638;51.362;12.472;2022-10-15T04:32:37;99393.72;;;13.87;96.78
74268;BME280;62638;51.362;12.472;2022-10-15T04:35:03;99393.91;;;13.85;97.07
74268;BME280;62638;51.362;12.472;2022-10-15T04:37:32;99402.19;;;13.84;96.55
74268;BME280;62638;51.362;12.472;2022-10-15T04:39:58;99404.69;;;13.71;97.26
74268;BME280;62638;51.362;12.472;2022-10-15T04:42:23;99398.75;;;13.75;97.09
74268;BME280;62638;51.362;12.472;2022-10-15T04:44:48;99397.44;;;13.71;97.51
74268;BME280;62638;51.362;12.472;2022-10-15T04:47:14;99403.53;;;13.65;97.71
74268;BME280;62638;51.362;12.472;2022-10-15T04:49:39;99391.94;;;13.64;97.73
74268;BME280;62638;51.362;12.472;2022-10-15T04:52:04;99393.34;;;13.60;97.41
74268;BME280;62638;51.362;12.472;2022-10-15T04:54:30;99390.72;;;13.52;98.29
74268;BME280;62638;51.362;12.472;2022-10-15T04:56:55;99397.03;;;13.45;98.28
74268;BME280;62638;51.362;12.472;2022-10-15T04:59:20;99390.81;;;13.44;98.52
74268;BME280;62638;51.362;12.472;2022-10-15T05:01:46;99392.22;;;13.40;98.94
74268;BME280;62638;51.362;12.472;2022-10-15T05:04:11;99389.13;;;13.43;98.88
74268;BME280;62638;51.362;12.472;2022-10-15T05:06:36;99389.81;;;13.45;98.46
74268;BME280;62638;51.362;12.472;2022-10-15T05:09:02;99384.06;;;13.48;98.43
74268;BME280;62638;51.362;12.472;2022-10-15T05:11:28;99391.41;;;13.54;98.08
74268;BME280;62638;51.362;12.472;2022-10-15T05:13:55;99389.63;;;13.61;97.73
74268;BME280;62638;51.362;12.472;2022-10-15T05:16:22;99400.41;;;13.61;97.87
74268;BME280;62638;51.362;12.472;2022-10-15T05:18:51;99397.88;;;13.60;97.77
74268;BME280;62638;51.362;12.472;2022-10-15T05:21:19;99401.88;;;13.64;97.51
74268;BME280;62638;51.362;12.472;2022-10-15T05:23:44;99399.38;;;13.62;97.92
74268;BME280;62638;51.362;12.472;2022-10-15T05:26:14;99396.50;;;13.64;97.89
74268;BME280;62638;51.362;12.472;2022-10-15T05:28:40;99399.75;;;13.74;97.73
74268;BME280;62638;51.362;12.472;2022-10-15T05:31:11;99396.69;;;13.92;96.45
74268;BME280;62638;51.362;12.472;2022-10-15T05:33:37;99400.41;;;13.91;96.57
74268;BME280;62638;51.362;12.472;2022-10-15T05:38:37;99401.16;;;13.85;96.75
74268;BME280;62638;51.362;12.472;2022-10-15T05:41:03;99399.22;;;13.93;96.33
74268;BME280;62638;51.362;12.472;2022-10-15T05:43:28;99401.69;;;13.95;96.25
74268;BME280;62638;51.362;12.472;2022-10-15T05:45:54;99410.78;;;13.94;96.36
74268;BME280;62638;51.362;12.472;2022-10-15T05:48:20;99413.75;;;13.99;96.18
74268;BME280;62638;51.362;12.472;2022-10-15T05:50:45;99417.22;;;13.93;96.18
74268;BME280;62638;51.362;12.472;2022-10-15T05:53:11;99417.22;;;13.93;96.27
74268;BME280;62638;51.362;12.472;2022-10-15T05:55:36;99421.38;;;13.95;96.58
74268;BME280;62638;51.362;12.472;2022-10-15T05:58:02;99422.41;;;13.94;96.29
74268;BME280;62638;51.362;12.472;2022-10-15T06:00:28;99420.53;;;13.95;96.69
74268;BME280;62638;51.362;12.472;2022-10-15T06:02:53;99419.91;;;13.93;96.64
74268;BME280;62638;51.362;12.472;2022-10-15T06:05:19;99422.41;;;14.09;95.79
74268;BME280;62638;51.362;12.472;2022-10-15T06:07:44;99431.03;;;14.04;95.42
74268;BME280;62638;51.362;12.472;2022-10-15T06:10:09;99434.56;;;14.05;95.40
74268;BME280;62638;51.362;12.472;2022-10-15T06:12:35;99436.88;;;14.08;95.52
74268;BME280;62638;51.362;12.472;2022-10-15T06:15:00;99437.00;;;14.15;95.45
74268;BME280;62638;51.362;12.472;2022-10-15T06:17:25;99433.34;;;14.22;95.23
74268;BME280;62638;51.362;12.472;2022-10-15T06:19:51;99434.38;;;14.21;94.72
74268;BME280;62638;51.362;12.472;2022-10-15T06:22:16;99432.13;;;14.25;94.45
74268;BME280;62638;51.362;12.472;2022-10-15T06:24:41;99441.16;;;14.32;94.03
74268;BME280;62638;51.362;12.472;2022-10-15T06:27:07;99444.13;;;14.37;93.71
74268;BME280;62638;51.362;12.472;2022-10-15T06:29:34;99447.31;;;14.40;93.62
74268;BME280;62638;51.362;12.472;2022-10-15T06:31:59;99447.09;;;14.42;93.47
74268;BME280;62638;51.362;12.472;2022-10-15T06:34:26;99447.53;;;14.45;93.61
74268;BME280;62638;51.362;12.472;2022-10-15T06:36:51;99446.53;;;14.46;93.72
74268;BME280;62638;51.362;12.472;2022-10-15T06:39:17;99460.72;;;14.55;92.88
74268;BME280;62638;51.362;12.472;2022-10-15T06:41:42;99451.69;;;14.63;92.91
74268;BME280;62638;51.362;12.472;2022-10-15T06:44:07;99448.75;;;14.58;92.55
74268;BME280;62638;51.362;12.472;2022-10-15T06:46:32;99450.88;;;14.62;92.63
74268;BME280;62638;51.362;12.472;2022-10-15T06:48:58;99454.66;;;14.68;92.78
74268;BME280;62638;51.362;12.472;2022-10-15T06:51:23;99460.31;;;14.73;91.62
74268;BME280;62638;51.362;12.472;2022-10-15T06:53:48;99459.72;;;14.92;91.58
74268;BME280;62638;51.362;12.472;2022-10-15T06:56:14;99464.91;;;14.93;90.83
74268;BME280;62638;51.362;12.472;2022-10-15T06:58:40;99458.94;;;14.98;90.70
74268;BME280;62638;51.362;12.472;2022-10-15T07:01:06;99458.09;;;14.97;91.00
74268;BME280;62638;51.362;12.472;2022-10-15T07:03:32;99459.59;;;15.00;90.70
74268;BME280;62638;51.362;12.472;2022-10-15T07:06:03;99461.75;;;14.90;90.77
74268;BME280;62638;51.362;12.472;2022-10-15T07:08:28;99461.84;;;14.96;91.15
74268;BME280;62638;51.362;12.472;2022-10-15T07:10:54;99479.94;;;15.03;90.72
74268;BME280;62638;51.362;12.472;2022-10-15T07:13:19;99474.41;;;14.89;91.04
74268;BME280;62638;51.362;12.472;2022-10-15T07:15:44;99483.16;;;14.91;91.67
74268;BME280;62638;51.362;12.472;2022-10-15T07:18:11;99492.97;;;14.99;90.67
74268;BME280;62638;51.362;12.472;2022-10-15T07:20:36;99490.53;;;15.04;90.92
74268;BME280;62638;51.362;12.472;2022-10-15T07:23:02;99498.34;;;15.14;89.94
74268;BME280;62638;51.362;12.472;2022-10-15T07:25:27;99508.72;;;15.17;90.38
74268;BME280;62638;51.362;12.472;2022-10-15T07:27:54;99509.25;;;15.27;89.67
74268;BME280;62638;51.362;12.472;2022-10-15T07:30:20;99512.53;;;15.22;89.35
74268;BME280;62638;51.362;12.472;2022-10-15T07:32:46;99516.13;;;15.29;89.13
74268;BME280;62638;51.362;12.472;2022-10-15T07:35:12;99509.56;;;15.17;89.58
74268;BME280;62638;51.362;12.472;2022-10-15T07:37:37;99514.66;;;15.27;88.88
74268;BME280;62638;51.362;12.472;2022-10-15T07:40:02;99514.00;;;15.25;89.23
74268;BME280;62638;51.362;12.472;2022-10-15T07:42:28;99508.88;;;15.30;89.09
74268;BME280;62638;51.362;12.472;2022-10-15T07:44:54;99520.81;;;15.42;88.84
74268;BME280;62638;51.362;12.472;2022-10-15T07:47:19;99532.34;;;15.51;88.21
74268;BME280;62638;51.362;12.472;2022-10-15T07:49:44;99515.66;;;15.62;88.73
74268;BME280;62638;51.362;12.472;2022-10-15T07:52:10;99520.38;;;15.81;87.15
74268;BME280;62638;51.362;12.472;2022-10-15T07:54:35;99514.78;;;15.82;87.54
74268;BME280;62638;51.362;12.472;2022-10-15T07:57:01;99505.44;;;15.85;87.02
74268;BME280;62638;51.362;12.472;2022-10-15T07:59:26;99510.03;;;15.63;87.75
74268;BME280;62638;51.362;12.472;2022-10-15T08:01:51;99518.44;;;15.75;87.41
74268;BME280;62638;51.362;12.472;2022-10-15T08:04:17;99519.75;;;15.79;87.54
74268;BME280;62638;51.362;12.472;2022-10-15T08:06:44;99520.28;;;15.96;87.70
74268;BME280;62638;51.362;12.472;2022-10-15T08:09:10;99527.81;;;16.00;87.00
74268;BME280;62638;51.362;12.472;2022-10-15T08:11:35;99526.16;;;16.06;86.41
74268;BME280;62638;51.362;12.472;2022-10-15T08:14:00;99519.16;;;16.11;85.90
74268;BME280;62638;51.362;12.472;2022-10-15T08:16:27;99526.22;;;16.12;85.25
74268;BME280;62638;51.362;12.472;2022-10-15T08:18:53;99528.69;;;16.07;86.12
74268;BME280;62638;51.362;12.472;2022-10-15T08:21:18;99529.44;;;16.01;85.69
74268;BME280;62638;51.362;12.472;2022-10-15T08:23:43;99535.41;;;15.90;85.95
74268;BME280;62638;51.362;12.472;2022-10-15T08:26:09;99526.53;;;15.96;86.70
74268;BME280;62638;51.362;12.472;2022-10-15T08:28:34;99525.09;;;16.00;86.29
74268;BME280;62638;51.362;12.472;2022-10-15T08:31:01;99529.69;;;16.06;86.40
74268;BME280;62638;51.362;12.472;2022-10-15T08:33:27;99524.28;;;16.06;86.16
74268;BME280;62638;51.362;12.472;2022-10-15T08:35:53;99534.56;;;16.17;85.18
74268;BME280;62638;51.362;12.472;2022-10-15T08:38:18;99534.41;;;16.25;84.93
74268;BME280;62638;51.362;12.472;2022-10-15T08:40:48;99534.78;;;16.50;85.30
74268;BME280;62638;51.362;12.472;2022-10-15T08:43:22;99543.25;;;16.75;83.44
74268;BME280;62638;51.362;12.472;2022-10-15T08:45:51;99559.00;;;17.06;81.71
74268;BME280;62638;51.362;12.472;2022-10-15T08:48:25;99564.25;;;17.20;81.04
74268;BME280;62638;51.362;12.472;2022-10-15T08:53:36;99563.41;;;17.20;79.83
74268;BME280;62638;51.362;12.472;2022-10-15T08:56:07;99568.53;;;17.69;78.88
74268;BME280;62638;51.362;12.472;2022-10-15T08:58:49;99579.41;;;17.89;77.79
74268;BME280;62638;51.362;12.472;2022-10-15T09:01:52;99579.84;;;18.12;78.19
74268;BME280;62638;51.362;12.472;2022-10-15T09:04:46;99582.88;;;17.56;77.62
74268;BME280;62638;51.362;12.472;2022-10-15T09:07:20;99588.47;;;17.42;78.57
74268;BME280;62638;51.362;12.472;2022-10-15T09:09:50;99583.69;;;17.50;78.42
74268;BME280;62638;51.362;12.472;2022-10-15T09:12:32;99589.50;;;17.41;79.53
74268;BME280;62638;51.362;12.472;2022-10-15T09:15:02;99594.72;;;17.49;78.63
74268;BME280;62638;51.362;12.472;2022-10-15T09:17:31;99596.75;;;17.27;78.66
74268;BME280;62638;51.362;12.472;2022-10-15T09:19:57;99604.28;;;17.38;78.93
74268;BME280;62638;51.362;12.472;2022-10-15T09:22:26;99600.72;;;17.31;79.68
74268;BME280;62638;51.362;12.472;2022-10-15T09:24:52;99605.09;;;17.39;78.42
74268;BME280;62638;51.362;12.472;2022-10-15T09:27:29;99606.41;;;17.49;78.86
74268;BME280;62638;51.362;12.472;2022-10-15T09:30:35;99606.91;;;17.73;78.03
74268;BME280;62638;51.362;12.472;2022-10-15T09:33:29;99605.00;;;17.66;78.30
74268;BME280;62638;51.362;12.472;2022-10-15T09:36:27;99608.56;;;17.87;77.87
74268;BME280;62638;51.362;12.472;2022-10-15T09:44:22;99619.38;;;17.67;77.11
74268;BME280;62638;51.362;12.472;2022-10-15T09:46:49;99618.56;;;17.66;77.77
74268;BME280;62638;51.362;12.472;2022-10-15T09:49:17;99618.75;;;17.65;77.38
74268;BME280;62638;51.362;12.472;2022-10-15T09:51:56;99613.56;;;17.83;77.45
74268;BME280;62638;51.362;12.472;2022-10-15T09:57:30;99618.78;;;17.72;76.49
74268;BME280;62638;51.362;12.472;2022-10-15T09:59:59;99615.00;;;17.66;76.77
74268;BME280;62638;51.362;12.472;2022-10-15T10:02:28;99609.03;;;17.90;75.48
74268;BME280;62638;51.362;12.472;2022-10-15T10:04:54;99612.50;;;17.58;76.65
74268;BME280;62638;51.362;12.472;2022-10-15T10:07:36;99615.00;;;17.59;76.92
74268;BME280;62638;51.362;12.472;2022-10-15T10:10:22;99619.59;;;17.65;76.05
74268;BME280;62638;51.362;12.472;2022-10-15T10:12:47;99616.03;;;17.65;75.11
74268;BME280;62638;51.362;12.472;2022-10-15T10:15:32;99622.53;;;17.84;76.14
74268;BME280;62638;51.362;12.472;2022-10-15T10:17:59;99618.56;;;17.86;75.82
74268;BME280;62638;51.362;12.472;2022-10-15T10:20:27;99618.19;;;17.89;75.53
74268;BME280;62638;51.362;12.472;2022-10-15T10:22:56;99626.31;;;18.02;75.26
74268;BME280;62638;51.362;12.472;2022-10-15T10:27:51;99629.25;;;18.21;73.98
74268;BME280;62638;51.362;12.472;2022-10-15T10:30:16;99626.53;;;18.07;74.76
74268;BME280;62638;51.362;12.472;2022-10-15T10:32:42;99623.19;;;18.05;75.16
74268;BME280;62638;51.362;12.472;2022-10-15T10:35:20;99630.06;;;18.01;77.04
74268;BME280;62638;51.362;12.472;2022-10-15T10:37:46;99631.53;;;18.10;74.25
74268;BME280;62638;51.362;12.472;2022-10-15T10:40:31;99630.25;;;18.79;72.77
74268;BME280;62638;51.362;12.472;2022-10-15T10:46:15;99633.19;;;18.64;71.87
74268;BME280;62638;51.362;12.472;2022-10-15T10:48:43;99634.88;;;18.32;73.38
74268;BME280;62638;51.362;12.472;2022-10-15T10:51:13;99631.50;;;18.83;71.41
74268;BME280;62638;51.362;12.472;2022-10-15T10:54:06;99630.19;;;18.98;71.12
74268;BME280;62638;51.362;12.472;2022-10-15T10:56:48;99624.28;;;20.04;68.85
74268;BME280;62638;51.362;12.472;2022-10-15T10:59:18;99625.56;;;20.01;67.11
74268;BME280;62638;51.362;12.472;2022-10-15T11:01:45;99620.44;;;19.48;68.75
74268;BME280;62638;51.362;12.472;2022-10-15T11:04:12;99626.16;;;19.21;69.44
74268;BME280;62638;51.362;12.472;2022-10-15T11:29:10;99641.16;;;18.59;72.10
74268;BME280;62638;51.362;12.472;2022-10-15T11:31:53;99641.56;;;18.36;72.67
74268;BME280;62638;51.362;12.472;2022-10-15T11:34:28;99643.22;;;18.24;73.42
74268;BME280;62638;51.362;12.472;2022-10-15T11:40:11;99644.69;;;18.27;72.45
74268;BME280;62638;51.362;12.472;2022-10-15T11:45:20;99644.88;;;18.25;73.65
74268;BME280;62638;51.362;12.472;2022-10-15T11:47:58;99644.06;;;18.71;71.48
74268;BME280;62638;51.362;12.472;2022-10-15T11:53:52;99653.44;;;18.68;72.45
74268;BME280;62638;51.362;12.472;2022-10-15T11:56:27;99649.09;;;18.54;72.88
74268;BME280;62638;51.362;12.472;2022-10-15T11:59:11;99648.03;;;18.29;73.54
74268;BME280;62638;51.362;12.472;2022-10-15T12:01:42;99650.31;;;18.32;74.01
74268;BME280;62638;51.362;12.472;2022-10-15T12:06:53;99638.66;;;18.38;72.77
74268;BME280;62638;51.362;12.472;2022-10-15T12:09:36;99633.84;;;18.33;72.47
74268;BME280;62638;51.362;12.472;2022-10-15T12:17:41;99636.75;;;18.65;71.50
74268;BME280;62638;51.362;12.472;2022-10-15T12:20:16;99639.44;;;18.51;71.28
74268;BME280;62638;51.362;12.472;2022-10-15T12:30:33;99622.50;;;18.95;69.70
74268;BME280;62638;51.362;12.472;2022-10-15T12:33:02;99608.59;;;19.74;68.69
74268;BME280;62638;51.362;12.472;2022-10-15T12:35:35;99620.06;;;20.08;65.66
74268;BME280;62638;51.362;12.472;2022-10-15T12:41:18;99599.81;;;20.28;64.93
74268;BME280;62638;51.362;12.472;2022-10-15T12:43:47;99599.69;;;20.17;65.01
74268;BME280;62638;51.362;12.472;2022-10-15T12:46:15;99600.38;;;20.12;65.42
74268;BME280;62638;51.362;12.472;2022-10-15T12:48:45;99606.47;;;20.08;65.30
74268;BME280;62638;51.362;12.472;2022-10-15T12:53:46;99600.63;;;21.33;63.69
74268;BME280;62638;51.362;12.472;2022-10-15T12:58:54;99609.00;;;20.77;61.17
74268;BME280;62638;51.362;12.472;2022-10-15T13:11:21;99617.88;;;19.91;66.30
74268;BME280;62638;51.362;12.472;2022-10-15T13:13:50;99614.63;;;19.76;66.09
74268;BME280;62638;51.362;12.472;2022-10-15T13:16:18;99616.91;;;19.35;67.70
74268;BME280;62638;51.362;12.472;2022-10-15T13:18:53;99618.38;;;19.44;66.86
74268;BME280;62638;51.362;12.472;2022-10-15T13:21:20;99623.84;;;19.75;66.84
74268;BME280;62638;51.362;12.472;2022-10-15T13:23:47;99622.69;;;19.58;66.35
74268;BME280;62638;51.362;12.472;2022-10-15T13:28:45;99615.66;;;20.07;65.05
74268;BME280;62638;51.362;12.472;2022-10-15T13:31:21;99617.47;;;20.69;64.45
74268;BME280;62638;51.362;12.472;2022-10-15T13:33:51;99620.38;;;20.49;63.18
74268;BME280;62638;51.362;12.472;2022-10-15T13:36:26;99626.28;;;20.15;65.94
74268;BME280;62638;51.362;12.472;2022-10-15T13:39:07;99615.69;;;19.75;65.29
74268;BME280;62638;51.362;12.472;2022-10-15T13:41:42;99614.63;;;19.45;67.07
74268;BME280;62638;51.362;12.472;2022-10-15T13:44:26;99616.78;;;19.23;67.78
74268;BME280;62638;51.362;12.472;2022-10-15T13:46:51;99613.47;;;19.08;68.35
74268;BME280;62638;51.362;12.472;2022-10-15T13:49:17;99617.22;;;19.07;70.17
74268;BME280;62638;51.362;12.472;2022-10-15T13:51:48;99614.78;;;18.92;69.25
74268;BME280;62638;51.362;12.472;2022-10-15T13:54:29;99626.44;;;18.99;69.81
74268;BME280;62638;51.362;12.472;2022-10-15T13:56:59;99621.66;;;19.01;69.44
74268;BME280;62638;51.362;12.472;2022-10-15T13:59:27;99622.59;;;19.20;69.38
74268;BME280;62638;51.362;12.472;2022-10-15T14:01:56;99623.03;;;19.24;69.14
74268;BME280;62638;51.362;12.472;2022-10-15T14:04:27;99611.88;;;19.38;69.06
74268;BME280;62638;51.362;12.472;2022-10-15T14:09:22;99612.22;;;19.62;68.63
74268;BME280;62638;51.362;12.472;2022-10-15T14:11:52;99617.34;;;19.45;67.72
74268;BME280;62638;51.362;12.472;2022-10-15T14:17:07;99620.69;;;19.34;67.07
74268;BME280;62638;51.362;12.472;2022-10-15T14:19:36;99621.56;;;19.28;67.32
74268;BME280;62638;51.362;12.472;2022-10-15T14:22:03;99618.97;;;19.46;67.12
74268;BME280;62638;51.362;12.472;2022-10-15T14:24:34;99621.47;;;19.47;66.90
74268;BME280;62638;51.362;12.472;2022-10-15T14:27:13;99634.44;;;19.39;68.12
74268;BME280;62638;51.362;12.472;2022-10-15T14:29:42;99621.50;;;19.34;66.81
74268;BME280;62638;51.362;12.472;2022-10-15T14:34:50;99621.88;;;19.51;67.26
74268;BME280;62638;51.362;12.472;2022-10-15T14:42:43;99614.06;;;19.23;68.95
74268;BME280;62638;51.362;12.472;2022-10-15T14:45:23;99611.75;;;19.20;69.07
74268;BME280;62638;51.362;12.472;2022-10-15T14:47:57;99612.59;;;19.21;69.18
74268;BME280;62638;51.362;12.472;2022-10-15T14:50:27;99610.13;;;19.13;70.21
74268;BME280;62638;51.362;12.472;2022-10-15T14:52:54;99614.66;;;19.25;69.33
74268;BME280;62638;51.362;12.472;2022-10-15T14:57:48;99613.28;;;19.10;70.45
74268;BME280;62638;51.362;12.472;2022-10-15T15:00:26;99615.59;;;19.06;69.44
74268;BME280;62638;51.362;12.472;2022-10-15T15:02:54;99613.47;;;19.08;70.33
74268;BME280;62638;51.362;12.472;2022-10-15T15:05:25;99617.69;;;18.97;69.75